Погода Рибейран-Претуна 2 недели

Сан-Паулу, Бразилия

20 июня-02 июля
  • 20июня
    Сегодня
    +12°
    +30°
    Ясно и безоблачно
    ВремяПогодаТемператураВлажностьДавлениеВетер, м/сВероятность осадков
    00:00Ясно и безоблачно+16°C58 %712 мм1.9 м/с5 %
    03:00Ясно и безоблачно+14°C65 %712 мм1.8 м/с5 %
    06:00Ясно и безоблачно+13°C68 %712 мм2.1 м/с5 %
    09:00Ясно и безоблачно+20°C49 %714 мм2.4 м/с5 %
    12:00Ясно и безоблачно+28°C28 %715 мм2.9 м/с5 %
    15:00Ясно и безоблачно+30°C26 %713 мм2.9 м/с5 %
    18:00Ясно и безоблачно+25°C37 %713 мм1.4 м/с5 %
    21:00Ясно и безоблачно+20°C40 %713 мм1.5 м/с5 %
  • 21июня
    Пятница
    +15°
    +31°
    Ясно и безоблачно
    ВремяПогодаТемператураВлажностьДавлениеВетер, м/сВероятность осадков
    00:00Ясно и безоблачно+17°C52 %713 мм1.8 м/с5 %
    03:00Ясно и безоблачно+14°C59 %712 мм1.9 м/с5 %
    06:00Ясно и безоблачно+13°C61 %711 мм2.4 м/с5 %
    09:00Практически безоблачно+19°C47 %713 мм2.7 м/с5 %
    12:00Ясно и безоблачно+29°C31 %714 мм3.8 м/с5 %
    15:00Ясно и безоблачно+30°C30 %712 мм3.1 м/с5 %
    18:00Практически безоблачно+27°C44 %712 мм1.7 м/с5 %
    21:00Облачно с прояснениями+22°C50 %713 мм1.7 м/с5 %
  • 22июня
    Суббота
    +15°
    +31°
    Облачно с прояснениями
    ВремяПогодаТемператураВлажностьДавлениеВетер, м/сВероятность осадков
    00:00Практически безоблачно+19°C55 %712 мм1.8 м/с5 %
    03:00Ясно и безоблачно+17°C63 %711 мм1.9 м/с5 %
    06:00Ясно и безоблачно+15°C60 %711 мм2.3 м/с5 %
    09:00Ясно и безоблачно+22°C56 %713 мм3.2 м/с5 %
    12:00Практически безоблачно+29°C31 %713 мм4.7 м/с5 %
    15:00Облачно с прояснениями+30°C29 %711 мм3.9 м/с5 %
    18:00Облачно с прояснениями+28°C40 %711 мм1.2 м/с5 %
    21:00Облачно с прояснениями+23°C49 %712 мм1.3 м/с5 %
  • 23июня
    Воскресенье
    +15°
    +33°
    Облачно с прояснениями
    ВремяПогодаТемператураВлажностьДавлениеВетер, м/сВероятность осадков
    00:00Облачно с прояснениями+20°C60 %711 мм1.8 м/с5 %
    03:00Небольшая облачность+17°C66 %711 мм1.9 м/с5 %
    06:00Ясно и безоблачно+16°C71 %711 мм2.1 м/с5 %
    09:00Ясно и безоблачно+23°C49 %713 мм1.9 м/с5 %
    12:00Ясно и безоблачно+30°C29 %713 мм4.1 м/с5 %
    15:00Облачно с прояснениями+32°C28 %711 мм3.5 м/с5 %
    18:00Ясно и безоблачно+29°C38 %711 мм1.1 м/с5 %
    21:00Ясно и безоблачно+23°C49 %711 мм1.5 м/с5 %
Мы используем cookies
Соглашаюсь